createdAt,value
2024-04-12T00:02:15.119Z,12.10
2024-04-12T00:04:43.169Z,12.13
2024-04-12T00:07:19.149Z,12.16
2024-04-12T00:09:55.585Z,12.14
2024-04-12T00:12:29.535Z,12.14
2024-04-12T00:15:18.326Z,12.10
2024-04-12T00:17:49.665Z,12.06
2024-04-12T00:20:22.515Z,12.02
2024-04-12T00:22:50.668Z,11.97
2024-04-12T00:25:20.791Z,11.94
2024-04-12T00:27:48.405Z,11.89
2024-04-12T00:30:38.822Z,11.88
2024-04-12T00:33:11.973Z,11.90
2024-04-12T00:35:42.843Z,11.89
2024-04-12T00:38:13.918Z,11.89
2024-04-12T00:40:47.679Z,11.89
2024-04-12T00:43:19.190Z,11.92
2024-04-12T00:45:51.038Z,11.89
2024-04-12T00:48:23.044Z,11.84
2024-04-12T00:50:55.502Z,11.83
2024-04-12T00:53:23.918Z,11.84
2024-04-12T00:56:02.034Z,11.88
2024-04-12T00:58:34.046Z,11.90
2024-04-12T01:01:12.495Z,11.90
2024-04-12T01:03:48.688Z,11.91
2024-04-12T01:06:20.159Z,11.94
2024-04-12T01:08:47.723Z,11.95
2024-04-12T01:11:21.313Z,11.95
2024-04-12T01:13:49.811Z,11.97
2024-04-12T01:16:20.650Z,12.00
2024-04-12T01:18:51.032Z,12.01
2024-04-12T01:21:21.188Z,12.03
2024-04-12T01:23:55.189Z,12.05
2024-04-12T01:26:29.413Z,12.07
2024-04-12T01:28:58.948Z,12.06
2024-04-12T01:31:29.248Z,12.06
2024-04-12T01:33:56.639Z,12.05
2024-04-12T01:36:27.518Z,12.06
2024-04-12T01:38:55.167Z,12.06
2024-04-12T01:41:33.569Z,12.05
2024-04-12T01:44:07.980Z,12.05
2024-04-12T01:46:39.314Z,12.07
2024-04-12T01:49:11.496Z,12.07
2024-04-12T01:51:43.465Z,12.07
2024-04-12T01:54:16.018Z,12.07
2024-04-12T01:56:49.931Z,12.10
2024-04-12T01:59:22.308Z,12.11
2024-04-12T02:01:52.415Z,12.15
2024-04-12T02:04:22.774Z,12.15
2024-04-12T02:06:54.485Z,12.12
2024-04-12T02:09:22.282Z,12.08
2024-04-12T02:11:55.307Z,12.06
2024-04-12T02:14:23.982Z,12.02
2024-04-12T02:16:54.529Z,12.00
2024-04-12T02:19:23.546Z,11.98
2024-04-12T02:21:54.394Z,11.98
2024-04-12T02:24:22.658Z,11.97
2024-04-12T02:26:55.542Z,11.97
2024-04-12T02:29:23.367Z,11.93
2024-04-12T02:31:53.346Z,11.87
2024-04-12T02:34:20.787Z,11.83
2024-04-12T02:36:50.995Z,11.65
2024-04-12T02:39:24.584Z,11.52
2024-04-12T02:41:57.410Z,11.40
2024-04-12T02:44:26.526Z,11.32
2024-04-12T02:46:56.923Z,11.25
2024-04-12T02:49:24.535Z,11.17
2024-04-12T02:51:54.705Z,11.07
2024-04-12T02:54:25.447Z,11.00
2024-04-12T02:56:59.697Z,10.95
2024-04-12T02:59:28.770Z,10.97
2024-04-12T03:01:59.859Z,11.09
2024-04-12T03:04:29.149Z,11.24
2024-04-12T03:07:10.480Z,11.32
2024-04-12T03:09:42.026Z,11.37
2024-04-12T03:12:14.982Z,11.35
2024-04-12T03:14:43.201Z,11.29
2024-04-12T03:17:13.430Z,11.17
2024-04-12T03:19:40.689Z,11.03
2024-04-12T03:22:12.367Z,10.92
2024-04-12T03:24:39.960Z,10.80
2024-04-12T03:27:12.708Z,10.68
2024-04-12T03:29:43.051Z,10.61
2024-04-12T03:32:14.166Z,10.59
2024-04-12T03:34:41.672Z,10.55
2024-04-12T03:37:25.132Z,10.50
2024-04-12T03:40:02.084Z,10.50
2024-04-12T03:42:32.751Z,10.39
2024-04-12T03:45:14.440Z,10.28
2024-04-12T03:47:46.491Z,10.23
2024-04-12T03:50:14.755Z,10.28
2024-04-12T03:52:46.355Z,10.30
2024-04-12T03:55:14.290Z,10.22
2024-04-12T03:57:45.840Z,10.16
2024-04-12T04:00:19.312Z,10.13
2024-04-12T04:02:50.090Z,10.16
2024-04-12T04:05:27.204Z,10.13
2024-04-12T04:07:55.724Z,10.12
2024-04-12T04:10:27.565Z,10.12
2024-04-12T04:12:55.226Z,10.14
2024-04-12T04:15:28.553Z,10.10
2024-04-12T04:17:56.253Z,10.07
2024-04-12T04:20:29.345Z,10.16
2024-04-12T04:23:04.676Z,10.20
2024-04-12T04:25:35.839Z,10.23
2024-04-12T04:28:04.365Z,10.24
2024-04-12T04:30:37.374Z,10.25
2024-04-12T04:33:05.636Z,10.31
2024-04-12T04:35:36.030Z,10.36
2024-04-12T04:38:03.872Z,10.43
2024-04-12T04:40:37.140Z,10.48
2024-04-12T04:43:09.406Z,10.51
2024-04-12T04:45:42.435Z,10.55
2024-04-12T04:48:12.670Z,10.60
2024-04-12T04:50:43.569Z,10.64
2024-04-12T04:53:13.292Z,10.72
2024-04-12T04:55:43.304Z,10.77
2024-04-12T04:58:10.890Z,10.80
2024-04-12T05:00:47.545Z,10.90
2024-04-12T05:03:17.065Z,10.97
2024-04-12T05:05:51.689Z,11.06
2024-04-12T05:08:21.838Z,11.13
2024-04-12T05:10:54.367Z,11.18
2024-04-12T05:13:26.867Z,11.27
2024-04-12T05:16:00.126Z,11.36
2024-04-12T05:18:28.805Z,11.44
2024-04-12T05:20:59.621Z,11.53
2024-04-12T05:23:30.189Z,11.61
2024-04-12T05:26:00.776Z,11.64
2024-04-12T05:28:28.950Z,11.73
2024-04-12T05:31:01.916Z,11.83
2024-04-12T05:33:31.843Z,11.89
2024-04-12T05:36:11.572Z,11.99
2024-04-12T05:38:39.371Z,12.11
2024-04-12T05:41:10.690Z,12.22
2024-04-12T05:43:39.601Z,12.32
2024-04-12T05:46:13.102Z,12.39
2024-04-12T05:48:41.593Z,12.41
2024-04-12T05:51:13.079Z,12.48
2024-04-12T05:53:41.338Z,12.49
2024-04-12T05:56:27.596Z,12.51
2024-04-12T05:58:58.386Z,12.53
2024-04-12T06:01:35.013Z,12.61
2024-04-12T06:04:02.970Z,12.69
2024-04-12T06:06:35.315Z,12.69
2024-04-12T06:09:10.428Z,12.76
2024-04-12T06:11:44.295Z,12.82
2024-04-12T06:14:15.465Z,12.89
2024-04-12T06:16:48.723Z,12.98
2024-04-12T06:19:16.344Z,13.01
2024-04-12T06:21:48.277Z,13.09
2024-04-12T06:24:17.955Z,13.09
2024-04-12T06:26:49.391Z,13.19
2024-04-12T06:31:55.351Z,13.35
2024-04-12T06:34:23.936Z,13.39
2024-04-12T06:37:07.420Z,13.48
2024-04-12T06:39:35.549Z,13.66
2024-04-12T06:42:10.636Z,13.79
2024-04-12T06:44:38.835Z,13.91
2024-04-12T06:47:14.810Z,14.17
2024-04-12T06:49:46.726Z,14.46
2024-04-12T06:52:22.493Z,14.70
2024-04-12T06:54:51.936Z,14.79
2024-04-12T06:57:24.441Z,14.81
2024-04-12T06:59:56.486Z,14.86
2024-04-12T07:02:32.189Z,14.97
2024-04-12T07:05:01.103Z,15.32
2024-04-12T07:07:31.938Z,15.65
2024-04-12T07:09:59.995Z,15.62
2024-04-12T07:12:33.054Z,15.61
2024-04-12T07:15:01.886Z,15.70
2024-04-12T07:17:35.359Z,15.62
2024-04-12T07:20:03.067Z,15.86
2024-04-12T07:22:36.071Z,16.01
2024-04-12T07:25:08.531Z,16.22
2024-04-12T07:27:42.799Z,16.12
2024-04-12T07:30:12.331Z,16.11
2024-04-12T07:35:26.707Z,16.10
2024-04-12T07:38:03.778Z,15.89
2024-04-12T07:40:36.896Z,15.96
2024-04-12T07:43:16.444Z,15.96
2024-04-12T07:45:46.505Z,15.98
2024-04-12T07:48:31.885Z,16.33
2024-04-12T07:51:03.291Z,16.55
2024-04-12T07:53:37.659Z,16.70
2024-04-12T07:56:10.170Z,16.62
2024-04-12T07:58:44.399Z,16.08
2024-04-12T08:01:17.795Z,15.94
2024-04-12T08:03:58.166Z,15.88
2024-04-12T08:06:38.980Z,15.65
2024-04-12T08:09:23.445Z,15.47
2024-04-12T08:11:53.647Z,15.61
2024-04-12T08:14:24.220Z,15.80
2024-04-12T08:16:55.320Z,15.60
2024-04-12T08:19:40.392Z,15.47
2024-04-12T08:22:09.062Z,15.38
2024-04-12T08:24:42.745Z,15.43
2024-04-12T08:27:10.922Z,15.38
2024-04-12T08:29:41.860Z,15.41
2024-04-12T08:32:14.809Z,15.42
2024-04-12T08:34:50.757Z,15.05
2024-04-12T08:37:19.841Z,15.02
2024-04-12T08:39:54.649Z,14.86
2024-04-12T08:42:30.755Z,14.72
2024-04-12T08:45:14.511Z,14.80
2024-04-12T08:47:53.851Z,14.89
2024-04-12T08:50:33.233Z,15.02
2024-04-12T08:53:13.433Z,15.07
2024-04-12T08:55:47.411Z,15.12
2024-04-12T08:58:22.633Z,15.37
2024-04-12T09:00:55.336Z,15.64
2024-04-12T09:03:26.755Z,15.87
2024-04-12T09:06:00.380Z,16.00
2024-04-12T09:08:33.410Z,15.95
2024-04-12T09:11:08.190Z,15.99
2024-04-12T09:13:38.049Z,16.01
2024-04-12T09:16:09.455Z,15.99
2024-04-12T09:18:46.889Z,15.76
2024-04-12T09:21:38.061Z,15.42
2024-04-12T09:24:12.115Z,15.55
2024-04-12T09:26:57.356Z,15.72
2024-04-12T09:29:28.769Z,16.20
2024-04-12T09:32:15.635Z,16.35
2024-04-12T09:34:48.225Z,16.53
2024-04-12T09:37:40.724Z,16.58
2024-04-12T09:40:26.394Z,16.57
2024-04-12T09:43:21.963Z,16.77
2024-04-12T09:46:07.380Z,16.57
2024-04-12T09:48:53.956Z,16.34
2024-04-12T09:51:40.155Z,16.01
2024-04-12T09:54:28.645Z,16.05
2024-04-12T09:57:16.822Z,15.90
2024-04-12T10:00:06.874Z,15.63
2024-04-12T10:03:06.332Z,15.51
2024-04-12T10:05:53.640Z,15.49
2024-04-12T10:08:42.950Z,15.50
2024-04-12T10:11:31.911Z,15.82
2024-04-12T10:14:19.063Z,16.07
2024-04-12T10:17:05.153Z,16.05
2024-04-12T10:19:51.102Z,15.97
2024-04-12T10:22:37.407Z,15.96
2024-04-12T10:25:24.423Z,16.10
2024-04-12T10:28:13.513Z,16.18
2024-04-12T10:31:03.197Z,16.37
2024-04-12T10:33:49.556Z,16.81
2024-04-12T10:36:35.896Z,17.39
2024-04-12T10:39:13.810Z,17.85
2024-04-12T10:41:47.396Z,17.83
2024-04-12T10:44:20.699Z,17.36
2024-04-12T10:46:49.508Z,17.02
2024-04-12T10:49:22.907Z,16.89
2024-04-12T10:51:52.913Z,16.34
2024-04-12T10:54:25.434Z,15.80
2024-04-12T10:56:57.764Z,15.89
2024-04-12T10:59:36.548Z,16.08
2024-04-12T11:02:04.597Z,16.24
2024-04-12T11:04:55.687Z,16.13
2024-04-12T11:07:24.460Z,15.98
2024-04-12T11:09:59.347Z,15.93
2024-04-12T11:12:30.222Z,16.04
2024-04-12T11:15:15.246Z,15.96
2024-04-12T11:18:09.021Z,15.85
2024-04-12T11:21:00.249Z,15.91
2024-04-12T11:23:46.402Z,15.79
2024-04-12T11:26:35.223Z,15.78
2024-04-12T11:29:24.294Z,15.88
2024-04-12T11:31:58.780Z,16.09
2024-04-12T11:34:35.884Z,16.27
2024-04-12T11:37:10.119Z,16.36
2024-04-12T11:39:37.745Z,16.30
2024-04-12T11:42:09.324Z,16.29
2024-04-12T11:44:36.978Z,16.42
2024-04-12T11:47:11.298Z,16.33
2024-04-12T11:49:43.459Z,16.57
2024-04-12T11:52:17.420Z,16.59
2024-04-12T11:54:48.088Z,16.36
2024-04-12T11:57:20.537Z,16.20
2024-04-12T11:59:55.734Z,16.40
2024-04-12T12:02:26.562Z,16.45
2024-04-12T12:04:57.629Z,16.22
2024-04-12T12:07:27.952Z,16.27
2024-04-12T12:09:59.614Z,16.36
2024-04-12T12:12:28.558Z,16.18
2024-04-12T12:14:59.799Z,16.31
2024-04-12T12:17:32.225Z,16.38
2024-04-12T12:20:02.606Z,16.14
2024-04-12T12:22:32.122Z,16.08
2024-04-12T12:25:05.475Z,16.06
2024-04-12T12:27:34.630Z,16.03
2024-04-12T12:30:15.280Z,16.03
2024-04-12T12:32:46.880Z,15.96
2024-04-12T12:35:20.499Z,15.94
2024-04-12T12:37:49.662Z,15.86
2024-04-12T12:40:22.866Z,15.84
2024-04-12T12:42:53.678Z,15.84
2024-04-12T12:45:25.868Z,15.82
2024-04-12T12:47:56.468Z,15.90
2024-04-12T12:50:27.621Z,15.80
2024-04-12T12:52:55.009Z,15.69
2024-04-12T12:55:30.273Z,15.62
2024-04-12T12:58:11.489Z,15.48
2024-04-12T13:00:46.014Z,15.46
2024-04-12T13:03:19.731Z,15.55
2024-04-12T13:05:50.917Z,15.59
2024-04-12T13:08:18.696Z,15.55
2024-04-12T13:10:50.507Z,15.45
2024-04-12T13:13:23.181Z,15.47
2024-04-12T13:15:59.553Z,15.54
2024-04-12T13:18:30.206Z,15.58
2024-04-12T13:21:00.843Z,15.45
2024-04-12T13:23:28.677Z,15.50
2024-04-12T13:25:59.112Z,15.71
2024-04-12T13:28:26.624Z,15.87
2024-04-12T13:30:57.086Z,16.22
2024-04-12T13:33:24.768Z,16.71
2024-04-12T13:36:01.561Z,16.99
2024-04-12T13:38:31.851Z,16.73
2024-04-12T13:41:03.337Z,17.12
2024-04-12T13:43:33.415Z,17.27
2024-04-12T13:46:19.542Z,17.31
2024-04-12T13:49:06.279Z,17.28
2024-04-12T13:51:41.273Z,17.07
2024-04-12T13:54:10.509Z,17.58
2024-04-12T13:56:42.509Z,17.93
2024-04-12T13:59:12.786Z,17.94
2024-04-12T14:01:44.263Z,18.44
2024-04-12T14:04:15.452Z,18.18
2024-04-12T14:06:50.830Z,17.87
2024-04-12T14:09:24.469Z,18.43
2024-04-12T14:11:56.369Z,18.20
2024-04-12T14:14:24.814Z,18.42
2024-04-12T14:16:56.579Z,-141.46
2024-04-12T14:19:24.223Z,-141.47
2024-04-12T14:21:57.924Z,-141.47
2024-04-12T14:24:45.036Z,-141.47
2024-04-12T14:27:15.631Z,-141.47
2024-04-12T14:29:44.593Z,-141.47
2024-04-12T14:32:17.178Z,-141.47
2024-04-12T14:34:51.767Z,-141.47
2024-04-12T14:37:31.453Z,-141.47
2024-04-12T14:39:59.012Z,-141.47
2024-04-12T14:42:29.442Z,-141.47
2024-04-12T14:44:57.058Z,-141.47
2024-04-12T14:47:29.218Z,-141.47
2024-04-12T14:49:56.630Z,-141.47
2024-04-12T14:52:27.444Z,-141.47
2024-04-12T14:54:58.286Z,-141.47
2024-04-12T14:57:28.544Z,-141.47
2024-04-12T14:59:55.926Z,-141.47
2024-04-12T15:02:26.065Z,-141.47
2024-04-12T15:05:12.001Z,-141.47
2024-04-12T15:07:58.105Z,-141.47
2024-04-12T15:10:46.774Z,-141.47
2024-04-12T15:13:32.697Z,-141.47
2024-04-12T15:16:18.933Z,-141.47
2024-04-12T15:19:04.854Z,-141.47
2024-04-12T15:21:50.987Z,-141.47
2024-04-12T15:24:37.122Z,-141.47
2024-04-12T15:27:26.063Z,-141.47
2024-04-12T15:30:12.142Z,-141.47
2024-04-12T15:32:58.954Z,-141.47
2024-04-12T15:35:45.107Z,-141.47
2024-04-12T15:38:30.818Z,-141.47
2024-04-12T15:41:16.767Z,-141.47
2024-04-12T15:44:05.638Z,-141.47
2024-04-12T15:46:51.908Z,-141.47
2024-04-12T15:49:31.192Z,-141.47
2024-04-12T15:52:06.857Z,-141.47
2024-04-12T15:54:47.372Z,-141.47
2024-04-12T15:57:33.583Z,-141.47
2024-04-12T16:00:37.770Z,-141.47
2024-04-12T16:03:24.094Z,-141.47
2024-04-12T16:06:10.169Z,-141.47
2024-04-12T16:08:56.398Z,-141.47
2024-04-12T16:11:26.707Z,-141.47
2024-04-12T16:13:56.809Z,-141.47
2024-04-12T16:16:30.616Z,-141.47
2024-04-12T16:19:02.243Z,-141.47
2024-04-12T16:21:33.543Z,-141.47
2024-04-12T16:24:01.307Z,-141.47
2024-04-12T16:26:31.750Z,-141.47
2024-04-12T16:28:59.311Z,-141.47
2024-04-12T16:31:31.903Z,-141.47
2024-04-12T16:33:59.577Z,-141.47
2024-04-12T16:36:30.057Z,-141.47
2024-04-12T16:38:59.453Z,-141.47
2024-04-12T16:41:29.893Z,-141.47
2024-04-12T16:44:01.672Z,-141.47
2024-04-12T16:46:35.919Z,-141.47
2024-04-12T16:49:04.359Z,-141.47
2024-04-12T16:51:34.670Z,-141.47
2024-04-12T16:54:02.101Z,-141.47
2024-04-12T16:56:32.819Z,-141.47
2024-04-12T16:59:04.687Z,-141.47
2024-04-12T17:01:39.094Z,-141.47
2024-04-12T17:04:06.902Z,-141.47
2024-04-12T17:06:37.251Z,-141.47
2024-04-12T17:09:10.720Z,-141.47
2024-04-12T17:11:42.042Z,-141.47
2024-04-12T17:14:10.570Z,-141.47
2024-04-12T17:16:43.590Z,-141.47
2024-04-12T17:19:12.587Z,-141.47
2024-04-12T17:21:43.057Z,-141.47
2024-04-12T17:24:15.084Z,-141.47
2024-04-12T17:26:45.875Z,-141.47
2024-04-12T17:29:13.518Z,-141.47
2024-04-12T17:31:46.509Z,-141.47
2024-04-12T17:34:14.396Z,-141.47
2024-04-12T17:36:46.362Z,-141.47
2024-04-12T17:39:14.045Z,-141.47
2024-04-12T17:41:44.348Z,-141.47
2024-04-12T17:44:11.781Z,-141.47
2024-04-12T17:46:42.489Z,-141.47
2024-04-12T17:49:14.989Z,-141.47
2024-04-12T17:51:45.531Z,-141.47
2024-04-12T17:54:12.885Z,-141.47
2024-04-12T17:56:43.117Z,-141.47
2024-04-12T17:59:10.786Z,-141.47
2024-04-12T18:01:41.273Z,-141.47
2024-04-12T18:04:09.350Z,-141.47
2024-04-12T18:06:46.369Z,-141.47
2024-04-12T18:09:14.032Z,-141.47
2024-04-12T18:11:44.662Z,-141.47
2024-04-12T18:14:12.994Z,-141.47
2024-04-12T18:16:43.322Z,-141.47
2024-04-12T18:19:11.664Z,-141.47
2024-04-12T18:21:44.540Z,-141.47
2024-04-12T18:24:12.432Z,-141.47
2024-04-12T18:26:42.909Z,-141.47
2024-04-12T18:29:10.461Z,-141.47
2024-04-12T18:31:40.694Z,-141.47
2024-04-12T18:34:11.622Z,-141.47
2024-04-12T18:37:02.180Z,-141.47
2024-04-12T18:39:49.221Z,-141.47
2024-04-12T18:42:31.880Z,-141.47
2024-04-12T18:45:12.075Z,-141.47
2024-04-12T18:47:42.922Z,-141.47
2024-04-12T18:50:11.160Z,-141.47
2024-04-12T18:52:44.174Z,-141.47
2024-04-12T18:55:12.868Z,-141.47
2024-04-12T18:57:43.553Z,-141.47
2024-04-12T19:00:14.561Z,-141.47
2024-04-12T19:02:42.186Z,-141.47
2024-04-12T19:05:15.811Z,-141.47
2024-04-12T19:07:45.798Z,-141.47
2024-04-12T19:10:16.211Z,-141.47
2024-04-12T19:12:45.014Z,-141.47
2024-04-12T19:15:16.406Z,-141.47
2024-04-12T19:17:44.103Z,-141.47
2024-04-12T19:20:16.673Z,-141.47
2024-04-12T19:22:48.139Z,-141.47
2024-04-12T19:25:18.607Z,-141.47
2024-04-12T19:27:46.543Z,-141.47
2024-04-12T19:30:17.214Z,-141.47
2024-04-12T19:32:44.890Z,-141.47
2024-04-12T19:35:15.406Z,-141.47
2024-04-12T19:37:43.045Z,-141.47
2024-04-12T19:40:16.855Z,-141.47
2024-04-12T19:42:44.534Z,-141.47
2024-04-12T19:45:41.712Z,-141.47
2024-04-12T19:48:13.223Z,-141.47
2024-04-12T19:50:43.761Z,-141.47
2024-04-12T19:53:12.459Z,-141.47
2024-04-12T19:55:45.087Z,-141.47
2024-04-12T19:58:12.675Z,-141.47
2024-04-12T20:00:43.244Z,-141.47
2024-04-12T20:03:10.943Z,-141.47
2024-04-12T20:05:41.447Z,-141.47
2024-04-12T20:08:08.804Z,-141.47
2024-04-12T20:10:38.746Z,-141.47
2024-04-12T20:13:09.408Z,-141.47
2024-04-12T20:15:39.586Z,-141.47
2024-04-12T20:18:08.442Z,-141.47
2024-04-12T20:20:40.551Z,-141.47
2024-04-12T20:23:08.140Z,-141.47
2024-04-12T20:25:38.932Z,-141.47
2024-04-12T20:28:09.737Z,-141.47
2024-04-12T20:30:48.363Z,-141.47
2024-04-12T20:33:24.336Z,-141.47
2024-04-12T20:36:08.867Z,-141.47
2024-04-12T20:38:36.501Z,-141.47
2024-04-12T20:41:06.952Z,-141.47
2024-04-12T20:43:37.301Z,-141.47
2024-04-12T20:46:09.535Z,-141.47
2024-04-12T20:48:37.221Z,-141.47
2024-04-12T20:51:08.437Z,-141.47
2024-04-12T20:53:36.082Z,-141.47
2024-04-12T20:56:06.512Z,-141.47
2024-04-12T20:58:36.516Z,-141.47
2024-04-12T21:01:06.896Z,-141.47
2024-04-12T21:03:34.558Z,-141.47
2024-04-12T21:06:06.223Z,-141.47
2024-04-12T21:08:33.838Z,-141.47
2024-04-12T21:11:09.991Z,-141.47
2024-04-12T21:13:45.508Z,-141.47
2024-04-12T21:16:15.864Z,-141.47
2024-04-12T21:18:43.507Z,-141.47
2024-04-12T21:21:15.208Z,-141.47
2024-04-12T21:23:43.102Z,-141.47
2024-04-12T21:26:13.431Z,-141.47
2024-04-12T21:28:42.585Z,-141.47
2024-04-12T21:31:17.422Z,-141.47
2024-04-12T21:33:45.418Z,-141.47
2024-04-12T21:36:16.252Z,-141.47
2024-04-12T21:38:44.450Z,-141.47
2024-04-12T21:41:17.131Z,-141.47
2024-04-12T21:43:45.609Z,-141.47
2024-04-12T21:46:19.974Z,-141.47
2024-04-12T21:48:49.243Z,-141.47
2024-04-12T21:51:20.853Z,-141.47
2024-04-12T21:53:48.581Z,-141.47
2024-04-12T21:56:20.880Z,-141.47
2024-04-12T21:58:50.215Z,-141.47
2024-04-12T22:01:23.124Z,-141.47
2024-04-12T22:03:50.862Z,-141.47
2024-04-12T22:06:21.188Z,-141.47
2024-04-12T22:08:51.994Z,-141.47
2024-04-12T22:11:24.817Z,-141.47
2024-04-12T22:13:53.032Z,-141.47
2024-04-12T22:16:25.932Z,-141.47
2024-04-12T22:18:55.315Z,-141.47
2024-04-12T22:21:25.604Z,-141.47
2024-04-12T22:23:53.191Z,-141.47
2024-04-12T22:26:25.129Z,-141.47
2024-04-12T22:28:52.458Z,-141.47
2024-04-12T22:31:26.732Z,-141.47
2024-04-12T22:33:55.199Z,-141.47
2024-04-12T22:36:26.371Z,-141.47
2024-04-12T22:38:53.921Z,-141.47
2024-04-12T22:41:24.615Z,-141.47
2024-04-12T22:43:52.656Z,-141.47
2024-04-12T22:46:25.513Z,-141.47
2024-04-12T22:48:56.221Z,-141.47
2024-04-12T22:51:27.525Z,-141.47
2024-04-12T22:53:59.197Z,-141.47
2024-04-12T22:56:29.474Z,-141.47
2024-04-12T22:58:57.424Z,-141.47
2024-04-12T23:01:30.539Z,-141.47
2024-04-12T23:03:58.475Z,-141.47
2024-04-12T23:06:28.954Z,-141.47
2024-04-12T23:08:56.821Z,-141.47
2024-04-12T23:11:27.190Z,-141.47
2024-04-12T23:13:54.707Z,-141.47
2024-04-12T23:16:24.870Z,-141.47
2024-04-12T23:18:55.610Z,-141.47
2024-04-12T23:21:25.986Z,-141.47
2024-04-12T23:23:53.524Z,-141.47
2024-04-12T23:26:23.708Z,-141.47
2024-04-12T23:28:50.985Z,-141.47
2024-04-12T23:31:21.158Z,-141.47
2024-04-12T23:33:49.365Z,-141.47
2024-04-12T23:36:22.418Z,-141.47
2024-04-12T23:38:50.004Z,-141.47
2024-04-12T23:41:20.224Z,-141.47
2024-04-12T23:43:48.453Z,-141.47
2024-04-12T23:46:18.618Z,-141.47
2024-04-12T23:48:46.290Z,-141.47
2024-04-12T23:51:17.355Z,-141.47
2024-04-12T23:53:49.417Z,-141.47
2024-04-12T23:56:19.632Z,-141.47
2024-04-12T23:58:46.894Z,-141.47
